createdAt,value
2023-01-26T00:02:06.962Z,26.47
2023-01-26T00:07:08.597Z,26.67
2023-01-26T00:12:10.249Z,26.60
2023-01-26T00:17:13.238Z,26.23
2023-01-26T00:22:14.900Z,27.27
2023-01-26T00:27:16.546Z,27.67
2023-01-26T00:32:19.533Z,25.83
2023-01-26T00:37:22.856Z,23.43
2023-01-26T00:42:25.757Z,24.60
2023-01-26T00:47:28.759Z,28.40
2023-01-26T00:52:31.832Z,27.00
2023-01-26T00:57:33.496Z,26.90
2023-01-26T01:02:36.537Z,26.47
2023-01-26T01:07:38.266Z,27.40
2023-01-26T01:12:41.185Z,25.53
2023-01-26T01:17:44.240Z,27.37
2023-01-26T01:22:45.915Z,25.03
2023-01-26T01:27:47.620Z,24.80
2023-01-26T01:32:51.622Z,25.53
2023-01-26T01:37:53.359Z,25.67
2023-01-26T01:42:55.071Z,24.90
2023-01-26T01:47:59.339Z,24.97
2023-01-26T01:53:01.205Z,26.13
2023-01-26T01:58:03.105Z,24.20
2023-01-26T02:03:16.652Z,24.40
2023-01-26T02:08:19.040Z,23.57
2023-01-26T02:13:20.769Z,25.10
2023-01-26T02:18:23.892Z,25.20
2023-01-26T02:23:42.180Z,26.43
2023-01-26T02:28:46.311Z,27.20
2023-01-26T02:33:48.045Z,25.80
2023-01-26T02:38:55.156Z,26.37
2023-01-26T02:43:59.012Z,28.80
2023-01-26T02:49:19.826Z,28.87
2023-01-26T02:54:40.632Z,28.47
2023-01-26T02:59:43.718Z,28.63
2023-01-26T03:04:45.406Z,28.47
2023-01-26T03:09:48.447Z,31.07
2023-01-26T03:15:10.593Z,27.67
2023-01-26T03:20:30.806Z,28.17
2023-01-26T03:25:51.538Z,29.80
2023-01-26T03:30:55.856Z,28.47
2023-01-26T03:35:57.714Z,30.50
2023-01-26T03:41:18.255Z,29.60
2023-01-26T03:46:39.829Z,29.97
2023-01-26T03:52:03.078Z,30.53
2023-01-26T03:57:04.843Z,27.97
2023-01-26T04:02:28.349Z,29.37
2023-01-26T04:07:48.939Z,29.03
2023-01-26T04:13:09.372Z,31.40
2023-01-26T04:18:31.385Z,35.87
2023-01-26T04:23:33.146Z,37.50
2023-01-26T04:28:35.931Z,38.80
2023-01-26T04:33:39.286Z,36.90
2023-01-26T04:38:42.011Z,34.80
2023-01-26T04:43:45.688Z,36.77
2023-01-26T04:48:49.231Z,35.30
2023-01-26T04:53:52.279Z,34.53
2023-01-26T04:58:55.886Z,37.27
2023-01-26T05:04:00.619Z,40.07
2023-01-26T05:09:04.015Z,37.63
2023-01-26T05:14:07.695Z,39.00
2023-01-26T05:19:32.513Z,37.83
2023-01-26T05:24:55.720Z,36.33
2023-01-26T05:30:03.112Z,34.17
2023-01-26T05:35:09.829Z,39.93
2023-01-26T05:40:12.526Z,36.50
2023-01-26T05:45:15.675Z,35.80
2023-01-26T05:50:18.904Z,39.83
2023-01-26T05:55:40.595Z,40.20
2023-01-26T06:00:42.504Z,36.80
2023-01-26T06:05:55.531Z,38.80
2023-01-26T06:11:06.500Z,38.80
2023-01-26T06:16:21.060Z,39.40
2023-01-26T06:21:25.445Z,38.67
2023-01-26T06:26:28.021Z,37.50
2023-01-26T06:31:31.898Z,39.90
2023-01-26T06:36:37.096Z,39.50
2023-01-26T06:41:40.193Z,40.13
2023-01-26T06:46:42.091Z,38.57
2023-01-26T06:51:57.235Z,38.43
2023-01-26T06:57:12.392Z,38.77
2023-01-26T07:02:28.872Z,36.23
2023-01-26T07:07:31.970Z,35.27
2023-01-26T07:12:40.728Z,33.60
2023-01-26T07:17:42.544Z,34.83
2023-01-26T07:22:45.615Z,35.23
2023-01-26T07:27:47.298Z,37.53
2023-01-26T07:32:49.000Z,35.73
2023-01-26T07:37:52.011Z,37.63
2023-01-26T07:42:55.440Z,37.00
2023-01-26T07:48:16.654Z,35.30
2023-01-26T07:53:19.887Z,36.33
2023-01-26T07:58:21.589Z,35.00
2023-01-26T08:03:24.744Z,35.50
2023-01-26T08:08:28.189Z,36.50
2023-01-26T08:13:35.927Z,34.87
2023-01-26T08:18:37.935Z,34.93
2023-01-26T08:23:40.961Z,35.40
2023-01-26T08:28:43.346Z,35.13
2023-01-26T08:33:45.167Z,33.60
2023-01-26T08:38:48.289Z,32.20
2023-01-26T08:43:51.202Z,32.67
2023-01-26T08:48:52.915Z,32.63
2023-01-26T08:53:56.011Z,31.33
2023-01-26T08:58:57.727Z,33.30
2023-01-26T09:04:00.105Z,32.50
2023-01-26T09:09:03.122Z,32.30
2023-01-26T09:14:04.865Z,32.50
2023-01-26T09:19:06.590Z,31.93
2023-01-26T09:24:09.873Z,31.77
2023-01-26T09:29:11.650Z,32.30
2023-01-26T09:34:13.399Z,31.67
2023-01-26T09:39:17.022Z,30.23
2023-01-26T09:44:19.912Z,31.67
2023-01-26T09:49:23.099Z,32.77
2023-01-26T09:54:28.388Z,31.03
2023-01-26T09:59:32.498Z,28.70
2023-01-26T10:04:39.113Z,29.70
2023-01-26T10:09:46.007Z,29.80
2023-01-26T10:14:51.860Z,30.10
2023-01-26T10:19:55.101Z,26.80
2023-01-26T10:24:58.195Z,30.77
2023-01-26T10:29:59.924Z,29.97
2023-01-26T10:35:01.777Z,29.70
2023-01-26T10:40:07.424Z,29.43
2023-01-26T10:45:24.423Z,31.87
2023-01-26T10:50:26.273Z,33.30
2023-01-26T10:55:29.558Z,30.97
2023-01-26T11:00:32.762Z,30.80
2023-01-26T11:05:34.887Z,32.60
2023-01-26T11:10:41.270Z,31.03
2023-01-26T11:15:44.399Z,31.87
2023-01-26T11:20:48.990Z,32.13
2023-01-26T11:26:11.489Z,31.00
2023-01-26T11:31:19.792Z,31.03
2023-01-26T11:36:26.648Z,31.63
2023-01-26T11:41:36.309Z,27.40
2023-01-26T11:46:45.567Z,28.60
2023-01-26T11:51:57.921Z,28.03
2023-01-26T11:57:04.650Z,27.70
2023-01-26T12:02:13.093Z,28.67
2023-01-26T12:07:15.981Z,24.33
2023-01-26T12:12:21.749Z,27.63
2023-01-26T12:17:30.501Z,28.40
2023-01-26T12:22:34.501Z,27.53
2023-01-26T12:27:40.392Z,26.27
2023-01-26T12:32:42.103Z,25.70
2023-01-26T12:37:48.062Z,24.47
2023-01-26T12:42:54.892Z,25.40
2023-01-26T12:47:59.119Z,24.30
2023-01-26T12:53:03.756Z,23.47
2023-01-26T12:58:10.232Z,25.00
2023-01-26T13:03:14.602Z,25.00
2023-01-26T13:08:48.707Z,24.83
2023-01-26T13:13:55.040Z,25.03
2023-01-26T13:18:57.230Z,23.07
2023-01-26T13:23:58.938Z,23.27
2023-01-26T13:29:32.585Z,22.63
2023-01-26T13:34:36.792Z,22.60
2023-01-26T13:39:39.338Z,21.50
2023-01-26T13:44:45.483Z,20.90
2023-01-26T13:49:47.147Z,22.27
2023-01-26T13:54:49.327Z,23.90
2023-01-26T13:59:53.108Z,23.07
2023-01-26T14:04:55.614Z,22.57
2023-01-26T14:10:00.480Z,20.63
2023-01-26T14:15:05.851Z,21.07
2023-01-26T14:20:18.074Z,20.17
2023-01-26T14:25:20.091Z,18.83
2023-01-26T14:30:26.197Z,18.97
2023-01-26T14:35:28.597Z,17.70
2023-01-26T14:40:30.263Z,18.50
2023-01-26T14:45:33.355Z,19.13
2023-01-26T14:50:35.058Z,17.60
2023-01-26T14:55:36.767Z,16.10
2023-01-26T15:00:39.880Z,15.37
2023-01-26T15:05:44.955Z,15.50
2023-01-26T15:10:53.479Z,13.13
2023-01-26T15:16:04.547Z,13.10
2023-01-26T15:21:12.469Z,13.57
2023-01-26T15:26:14.943Z,11.70
2023-01-26T15:31:20.756Z,11.83
2023-01-26T15:36:25.110Z,11.23
2023-01-26T15:41:27.159Z,13.70
2023-01-26T15:46:30.310Z,14.03
2023-01-26T15:51:32.233Z,13.80
2023-01-26T15:56:33.944Z,13.10
2023-01-26T16:01:38.033Z,13.50
2023-01-26T16:06:39.798Z,11.77
2023-01-26T16:11:43.731Z,16.80
2023-01-26T16:16:46.760Z,14.60
2023-01-26T16:21:48.619Z,12.80
2023-01-26T16:26:50.314Z,12.47
2023-01-26T16:31:53.334Z,11.20
2023-01-26T16:36:56.343Z,12.07
2023-01-26T16:41:58.108Z,11.40
2023-01-26T16:47:01.215Z,12.20
2023-01-26T16:52:02.989Z,12.30
2023-01-26T16:57:04.679Z,13.30
2023-01-26T17:02:12.070Z,12.83
2023-01-26T17:07:13.858Z,13.10
2023-01-26T17:12:15.518Z,13.60
2023-01-26T17:17:18.516Z,14.17
2023-01-26T17:22:20.244Z,14.00
2023-01-26T17:27:21.975Z,14.27
2023-01-26T17:32:28.028Z,15.53
2023-01-26T17:37:30.727Z,14.80
2023-01-26T17:42:34.804Z,14.20
2023-01-26T17:47:38.623Z,14.30
2023-01-26T17:52:40.326Z,14.40
2023-01-26T17:57:42.020Z,14.93
2023-01-26T18:02:45.078Z,15.60
2023-01-26T18:07:47.418Z,16.37
2023-01-26T18:12:49.813Z,15.70
2023-01-26T18:17:52.826Z,16.60
2023-01-26T18:22:54.449Z,17.60
2023-01-26T18:27:56.128Z,16.33
2023-01-26T18:32:59.240Z,16.20
2023-01-26T18:38:00.940Z,16.63
2023-01-26T18:43:02.618Z,17.80
2023-01-26T18:48:06.234Z,16.77
2023-01-26T18:53:08.003Z,16.70
2023-01-26T18:58:09.770Z,17.77
2023-01-26T19:03:12.962Z,19.50
2023-01-26T19:08:14.700Z,17.30
2023-01-26T19:13:16.677Z,17.00
2023-01-26T19:18:19.807Z,17.33
2023-01-26T19:23:21.710Z,19.17
2023-01-26T19:28:23.424Z,20.83
2023-01-26T19:33:28.854Z,19.20
2023-01-26T19:38:30.848Z,19.00
2023-01-26T19:43:32.702Z,17.77
2023-01-26T19:48:35.843Z,17.20
2023-01-26T19:53:38.695Z,20.50
2023-01-26T19:58:40.401Z,19.97
2023-01-26T20:03:43.422Z,18.90
2023-01-26T20:08:45.472Z,16.77
2023-01-26T20:13:47.197Z,19.37
2023-01-26T20:18:50.294Z,21.13
2023-01-26T20:23:55.152Z,17.37
2023-01-26T20:28:58.395Z,18.23
2023-01-26T20:34:02.287Z,19.40
2023-01-26T20:39:04.855Z,19.47
2023-01-26T20:44:07.239Z,20.20
2023-01-26T20:49:12.306Z,19.40
2023-01-26T20:54:15.436Z,17.80
2023-01-26T20:59:18.263Z,16.53
2023-01-26T21:04:21.395Z,18.27
2023-01-26T21:09:23.209Z,15.17
2023-01-26T21:14:24.877Z,17.20
2023-01-26T21:19:27.910Z,18.37
2023-01-26T21:24:29.834Z,14.60
2023-01-26T21:29:31.524Z,17.00
2023-01-26T21:34:34.562Z,14.83
2023-01-26T21:39:36.287Z,15.77
2023-01-26T21:44:57.962Z,15.67
2023-01-26T21:50:02.605Z,16.07
2023-01-26T21:55:04.566Z,16.20
2023-01-26T22:00:07.118Z,15.73
2023-01-26T22:05:10.192Z,16.50
2023-01-26T22:10:12.316Z,14.90
2023-01-26T22:15:14.325Z,16.50
2023-01-26T22:20:17.654Z,15.87
2023-01-26T22:25:20.240Z,17.03
2023-01-26T22:30:21.916Z,15.67
2023-01-26T22:35:24.944Z,17.60
2023-01-26T22:40:26.595Z,18.63
2023-01-26T22:45:28.325Z,16.97
2023-01-26T22:50:31.298Z,18.27
2023-01-26T22:55:32.963Z,17.17
2023-01-26T23:00:35.843Z,18.13
2023-01-26T23:05:38.911Z,18.47
2023-01-26T23:10:40.608Z,18.80
2023-01-26T23:15:42.263Z,18.27
2023-01-26T23:20:45.769Z,19.60
2023-01-26T23:25:50.251Z,19.07
2023-01-26T23:30:52.590Z,18.10
2023-01-26T23:35:55.656Z,18.10
2023-01-26T23:40:57.524Z,17.10
2023-01-26T23:45:59.520Z,15.20
2023-01-26T23:51:03.928Z,16.83
2023-01-26T23:56:06.789Z,16.10
